Hineston, Louisiana
Current Conditions -  °F | °C
As of 1:54 PM on Saturday 20 Dec 2014 (Local Time) from KBKB Reporting Station
Scattered Clouds Scattered Clouds  
Wind Chill: 58°   Ceiling: Unl
Heat Index: 58°   Visibility: 10mi
Dew Point: 44°   Wind: 6mph
Humidity: 60%   Direction: NA
Pressure: 30.13"   Gusts: NA
Location:  31.14°N, 92.76°W
Report Text: KBKB 201954Z AUTO VRB05KT 10SM SCT019 14/07 A3013 RMK AO2 SLP231 T01440067 $
Loading
Personal Weather Stations






























Interactive Weather Map New forecast layout! Learn more

10-Day Weather Forecast

Advertisements
Track Severe Weather on mobile